Time;durP1;ratioP1;P1;durP2;ratioP2;P2;SDS_P1;SDS_P2;PMS_P1;PMS_P2;Temp;Humidity;BMP_temperature;BMP_pressure;BME280_temperature;BME280_humidity;BME280_pressure;Samples;Min_cycle;Max_cycle;Signal;HPM_P1;HPM_P2
2023/04/07 00:00:47;;;;;;;4.78;4.38;;;24.70;44.70;;;;;;5116355;28;20276;-67
2023/04/07 00:03:37;;;;;;;5.28;4.80;;;24.70;44.60;;;;;;5115613;28;20283;-67
2023/04/07 00:06:26;;;;;;;5.22;4.72;;;24.60;44.00;;;;;;5115678;28;20215;-67
2023/04/07 00:09:14;;;;;;;4.88;4.43;;;24.60;44.60;;;;;;5114456;28;20202;-68
2023/04/07 00:12:03;;;;;;;4.65;4.25;;;24.60;44.60;;;;;;5114071;28;20201;-68
2023/04/07 00:14:51;;;;;;;4.47;4.07;;;24.60;44.70;;;;;;5115703;28;20712;-68
2023/04/07 00:17:39;;;;;;;4.68;4.28;;;24.50;44.10;;;;;;5115052;28;20230;-68
2023/04/07 00:20:28;;;;;;;5.43;4.93;;;24.40;44.50;;;;;;5115145;28;20587;-68
2023/04/07 00:23:16;;;;;;;4.50;4.10;;;24.40;44.70;;;;;;5113911;28;20284;-67
2023/04/07 00:26:04;;;;;;;4.28;3.83;;;24.20;44.30;;;;;;5114619;28;20713;-68
2023/04/07 00:28:53;;;;;;;4.70;4.40;;;24.20;44.90;;;;;;5115088;28;20278;-67
2023/04/07 00:31:41;;;;;;;4.55;4.15;;;24.20;44.90;;;;;;5114490;28;20202;-67
2023/04/07 00:34:30;;;;;;;4.40;4.10;;;24.20;44.80;;;;;;5114973;28;20202;-67
2023/04/07 00:37:18;;;;;;;4.35;3.95;;;24.30;44.40;;;;;;5114889;28;20331;-68
2023/04/07 00:40:07;;;;;;;6.13;4.57;;;24.40;45.00;;;;;;5114687;28;20666;-68
2023/04/07 00:42:55;;;;;;;4.32;3.92;;;24.40;45.40;;;;;;5115462;27;20328;-67
2023/04/07 00:45:45;;;;;;;5.45;4.95;;;24.10;47.30;;;;;;5114225;28;20580;-67
2023/04/07 00:48:33;;;;;;;4.50;4.20;;;24.40;44.80;;;;;;5114785;28;20270;-68
2023/04/07 00:51:21;;;;;;;4.15;3.75;;;24.40;44.70;;;;;;5112966;28;20195;-68
2023/04/07 00:54:10;;;;;;;4.72;4.40;;;24.40;44.70;;;;;;5112975;28;20203;-68
2023/04/07 00:56:58;;;;;;;4.88;4.47;;;24.40;44.20;;;;;;5115038;28;20310;-68
2023/04/07 00:59:46;;;;;;;5.90;4.50;;;24.40;44.80;;;;;;5114407;28;20705;-68
2023/04/07 01:02:40;;;;;;;4.80;4.25;;;24.40;44.80;;;;;;5113813;28;20199;-67
2023/04/07 01:05:37;;;;;;;5.28;3.92;;;24.50;44.70;;;;;;5113541;28;20278;-67
2023/04/07 01:08:33;;;;;;;5.13;4.63;;;24.50;44.20;;;;;;5113943;28;20278;-68
2023/04/07 01:11:26;;;;;;;4.60;4.20;;;24.60;44.70;;;;;;5113892;28;20676;-67
2023/04/07 01:14:17;;;;;;;4.85;4.25;;;24.60;44.60;;;;;;5114396;28;20202;-67
2023/04/07 01:17:07;;;;;;;5.10;4.13;;;24.70;44.10;;;;;;5113833;28;20641;-67
2023/04/07 01:20:02;;;;;;;4.68;4.28;;;24.70;44.60;;;;;;5112950;28;20211;-68
2023/04/07 01:22:54;;;;;;;4.57;4.25;;;24.70;44.60;;;;;;5114360;27;20278;-68
2023/04/07 01:26:11;;;;;;;4.93;4.53;;;24.70;44.30;;;;;;5113668;28;20608;-67
2023/04/07 01:29:35;;;;;;;4.40;4.00;;;24.60;44.50;;;;;;5112800;28;20202;-68
2023/04/07 01:32:27;;;;;;;4.65;4.25;;;24.50;44.60;;;;;;5111384;28;20631;-68
2023/04/07 01:35:16;;;;;;;6.82;4.25;;;24.40;44.70;;;;;;5114074;28;20231;-68
2023/04/07 01:38:06;;;;;;;4.70;4.20;;;24.40;44.90;;;;;;5112853;28;20403;-68
2023/04/07 01:40:56;;;;;;;5.00;4.60;;;24.40;44.80;;;;;;5111590;28;20215;-68
2023/04/07 01:43:45;;;;;;;5.80;4.18;;;24.40;44.80;;;;;;5113271;28;20202;-68
2023/04/07 01:46:34;;;;;;;5.70;5.20;;;24.40;44.30;;;;;;5113228;28;20215;-67
2023/04/07 01:49:25;;;;;;;4.40;4.10;;;24.50;44.80;;;;;;5113068;28;20278;-67
2023/04/07 01:52:14;;;;;;;3.97;3.67;;;24.40;44.80;;;;;;5112756;28;20206;-68
2023/04/07 01:55:03;;;;;;;4.82;4.43;;;24.40;44.80;;;;;;5112128;28;20272;-68
2023/04/07 01:57:53;;;;;;;4.65;4.25;;;24.40;44.20;;;;;;5107465;28;20357;-67
2023/04/07 02:00:42;;;;;;;4.38;3.97;;;24.30;44.80;;;;;;5113919;28;20211;-67
2023/04/07 02:03:33;;;;;;;4.13;3.70;;;24.30;44.90;;;;;;5111973;28;20202;-67
2023/04/07 02:06:37;;;;;;;4.00;3.63;;;24.20;44.40;;;;;;5112291;28;20294;-68
2023/04/07 02:09:28;;;;;;;3.97;3.67;;;24.20;45.00;;;;;;5112144;28;20198;-68
2023/04/07 02:12:16;;;;;;;4.70;4.32;;;24.20;44.90;;;;;;5111602;28;20252;-68
2023/04/07 02:15:08;;;;;;;5.10;4.60;;;24.20;45.00;;;;;;5113487;28;20647;-68
2023/04/07 02:17:59;;;;;;;4.40;4.00;;;24.30;44.30;;;;;;5111786;28;20219;-68
2023/04/07 02:20:49;;;;;;;4.47;4.05;;;24.40;44.90;;;;;;5110526;28;20310;-68
2023/04/07 02:23:39;;;;;;;4.30;3.97;;;24.50;44.70;;;;;;5110571;28;20195;-68
2023/04/07 02:26:27;;;;;;;4.72;4.30;;;24.60;44.10;;;;;;5113094;28;20226;-67
2023/04/07 02:29:15;;;;;;;4.65;4.13;;;24.60;44.60;;;;;;5110840;28;20199;-67
2023/04/07 02:32:03;;;;;;;5.07;4.57;;;24.60;44.50;;;;;;5111081;28;20202;-67
2023/04/07 02:34:51;;;;;;;5.22;4.28;;;24.70;45.20;;;;;;5115152;28;20735;-68
2023/04/07 02:37:39;;;;;;;4.65;4.25;;;24.60;44.00;;;;;;5113646;28;20219;-68
2023/04/07 02:40:29;;;;;;;4.60;4.20;;;24.50;44.50;;;;;;5112717;28;20570;-68
2023/04/07 02:43:18;;;;;;;3.88;3.50;;;24.50;44.50;;;;;;5112565;28;20708;-68
2023/04/07 02:46:06;;;;;;;5.30;4.32;;;24.40;44.00;;;;;;5111402;28;20277;-67
2023/04/07 02:48:54;;;;;;;4.25;3.95;;;24.40;44.70;;;;;;5111024;28;20198;-67
2023/04/07 02:51:42;;;;;;;4.53;4.13;;;24.40;44.80;;;;;;5111014;28;20668;-68
2023/04/07 02:54:30;;;;;;;3.90;3.60;;;24.40;44.80;;;;;;5110315;28;20207;-67
2023/04/07 02:57:19;;;;;;;3.85;3.50;;;24.40;44.30;;;;;;5112633;28;20225;-68
2023/04/07 03:00:09;;;;;;;4.85;4.15;;;24.40;44.80;;;;;;5111468;28;20203;-68
2023/04/07 03:02:57;;;;;;;4.18;3.88;;;24.40;44.60;;;;;;5117211;28;20708;-68
2023/04/07 03:05:45;;;;;;;4.72;4.32;;;24.70;48.50;;;;;;5117995;28;20583;-68
2023/04/07 03:08:33;;;;;;;4.90;4.50;;;24.40;44.60;;;;;;5116924;28;20227;-67
2023/04/07 03:11:21;;;;;;;4.28;3.92;;;24.60;44.80;;;;;;5119185;28;20721;-68
2023/04/07 03:14:10;;;;;;;4.57;4.18;;;24.40;44.60;;;;;;5117028;28;20195;-68
2023/04/07 03:16:58;;;;;;;3.83;3.53;;;24.40;44.10;;;;;;5120144;27;20702;-67
2023/04/07 03:19:47;;;;;;;4.63;4.00;;;24.50;44.90;;;;;;5117790;28;20205;-67
2023/04/07 03:22:35;;;;;;;4.63;4.22;;;24.30;44.80;;;;;;5116552;28;20348;-67
2023/04/07 03:25:23;;;;;;;4.30;4.00;;;24.30;44.80;;;;;;5119351;28;20744;-68
2023/04/07 03:28:11;;;;;;;4.10;3.80;;;24.20;44.80;;;;;;5116851;28;20192;-68
2023/04/07 03:31:00;;;;;;;4.60;4.20;;;24.30;44.90;;;;;;5119034;28;20206;-67
2023/04/07 03:33:49;;;;;;;4.30;3.90;;;24.30;44.80;;;;;;5119079;28;20296;-68
2023/04/07 03:36:37;;;;;;;4.60;4.20;;;24.30;44.80;;;;;;5119215;28;20242;-67
2023/04/07 03:39:26;;;;;;;4.30;4.00;;;24.30;45.50;;;;;;5116775;28;20203;-68
2023/04/07 03:42:14;;;;;;;4.03;3.72;;;24.20;44.80;;;;;;5118602;28;20226;-67
2023/04/07 03:45:02;;;;;;;4.50;4.10;;;24.20;44.80;;;;;;5117933;28;20577;-67
2023/04/07 03:47:52;;;;;;;4.40;4.00;;;24.20;44.80;;;;;;5117618;28;20223;-68
2023/04/07 03:50:41;;;;;;;4.68;4.10;;;24.20;45.00;;;;;;5118989;28;20691;-68
2023/04/07 03:53:29;;;;;;;3.88;3.47;;;24.20;44.90;;;;;;5118564;28;20321;-68
2023/04/07 03:56:18;;;;;;;4.60;4.18;;;24.30;44.30;;;;;;5118848;28;20324;-68
2023/04/07 03:59:06;;;;;;;5.00;4.60;;;24.30;44.80;;;;;;5116914;28;20209;-67
2023/04/07 04:01:55;;;;;;;4.13;3.83;;;24.30;44.80;;;;;;5117781;28;20348;-68
2023/04/07 04:04:44;;;;;;;4.15;3.85;;;24.30;44.80;;;;;;5118731;28;20206;-67
2023/04/07 04:07:33;;;;;;;4.32;3.95;;;24.30;44.20;;;;;;5116434;28;20308;-68
2023/04/07 04:10:21;;;;;;;5.07;4.28;;;24.40;44.80;;;;;;5118763;28;20213;-68
2023/04/07 04:13:10;;;;;;;4.28;3.97;;;24.40;44.80;;;;;;5115177;28;20675;-67
2023/04/07 04:15:58;;;;;;;5.03;4.20;;;24.40;44.10;;;;;;5115604;28;20298;-68
2023/04/07 04:18:46;;;;;;;4.57;4.15;;;24.50;44.70;;;;;;5112917;28;20259;-68
2023/04/07 04:21:35;;;;;;;4.13;3.72;;;24.50;44.70;;;;;;5115282;28;20683;-68
2023/04/07 04:24:23;;;;;;;4.47;4.07;;;24.50;44.60;;;;;;5115487;28;20278;-68
2023/04/07 04:27:11;;;;;;;4.45;4.05;;;24.50;44.20;;;;;;5138126;22;20832;-62
2023/04/07 04:29:59;;;;;;;4.55;4.15;;;24.50;44.70;;;;;;5120358;28;20245;-62
2023/04/07 04:32:48;;;;;;;4.25;3.90;;;24.40;44.60;;;;;;5119861;28;20571;-62
2023/04/07 04:35:36;;;;;;;4.95;4.55;;;24.40;44.70;;;;;;5119362;28;20229;-62
2023/04/07 04:38:25;;;;;;;4.88;3.90;;;24.50;44.80;;;;;;5101123;28;20215;-62
2023/04/07 04:41:13;;;;;;;4.72;4.32;;;24.50;44.80;;;;;;5099137;28;20262;-62
2023/04/07 04:44:01;;;;;;;4.65;4.25;;;24.50;44.70;;;;;;5099845;28;20676;-61
2023/04/07 04:46:49;;;;;;;4.32;3.92;;;24.40;44.60;;;;;;5097437;28;20224;-62
2023/04/07 04:49:37;;;;;;;4.25;3.90;;;24.40;44.60;;;;;;5096499;28;20193;-62
2023/04/07 04:52:26;;;;;;;4.85;4.35;;;24.40;44.70;;;;;;5095486;28;20224;-62
2023/04/07 04:55:15;;;;;;;3.90;3.42;;;24.40;44.60;;;;;;5095990;28;20275;-61
2023/04/07 04:58:03;;;;;;;4.32;3.92;;;24.40;44.60;;;;;;5098306;28;20299;-62
2023/04/07 05:00:56;;;;;;;4.32;4.00;;;24.60;44.80;;;;;;5097829;28;20196;-62
2023/04/07 05:03:45;;;;;;;4.57;4.13;;;24.40;44.70;;;;;;5098496;28;20223;-63
2023/04/07 05:06:33;;;;;;;5.03;4.00;;;24.40;44.70;;;;;;5099908;28;20220;-62
2023/04/07 05:09:21;;;;;;;5.50;4.60;;;24.40;44.70;;;;;;5100559;28;20282;-62
2023/04/07 05:12:10;;;;;;;4.43;4.03;;;26.40;46.20;;;;;;5099361;28;20275;-62
2023/04/07 05:14:58;;;;;;;4.00;3.38;;;24.30;44.80;;;;;;5099935;28;20204;-62
2023/04/07 05:17:49;;;;;;;5.00;4.60;;;24.30;44.20;;;;;;5100256;28;20297;-62
2023/04/07 05:20:37;;;;;;;3.85;3.55;;;24.30;44.70;;;;;;5099021;28;20206;-62
2023/04/07 05:23:25;;;;;;;4.32;3.92;;;24.40;44.70;;;;;;5098690;28;20212;-62
2023/04/07 05:26:13;;;;;;;4.68;4.28;;;23.50;47.60;;;;;;5098426;28;20638;-62
2023/04/07 05:29:02;;;;;;;4.20;3.90;;;24.50;44.80;;;;;;5094857;28;20579;-62
2023/04/07 05:31:50;;;;;;;4.75;4.25;;;24.50;44.70;;;;;;5093720;28;20204;-62
2023/04/07 05:34:39;;;;;;;5.05;4.30;;;24.50;44.70;;;;;;5095666;28;20206;-62
2023/04/07 05:37:27;;;;;;;4.25;3.85;;;24.50;44.10;;;;;;5095259;28;20224;-62
2023/04/07 05:40:16;;;;;;;5.25;4.65;;;24.60;45.40;;;;;;5096910;28;20204;-62
2023/04/07 05:43:04;;;;;;;4.10;3.80;;;24.40;44.50;;;;;;5095934;28;20230;-62
2023/04/07 05:45:53;;;;;;;4.63;4.22;;;24.30;45.30;;;;;;5093747;28;20279;-61
2023/04/07 05:48:41;;;;;;;4.32;4.03;;;24.20;44.20;;;;;;5094254;28;20207;-62
2023/04/07 05:51:30;;;;;;;4.90;4.25;;;24.20;44.90;;;;;;5095096;28;20195;-62
2023/04/07 05:54:18;;;;;;;4.85;4.35;;;24.10;44.90;;;;;;5094472;28;20222;-62
2023/04/07 05:57:06;;;;;;;4.30;3.63;;;24.20;44.40;;;;;;5094800;28;20224;-62
2023/04/07 05:59:54;;;;;;;4.70;4.30;;;24.20;44.80;;;;;;5095056;28;20200;-62
2023/04/07 06:02:43;;;;;;;4.85;4.40;;;24.30;44.60;;;;;;5078824;28;20597;-62
2023/04/07 06:05:32;;;;;;;5.30;4.80;;;24.40;44.70;;;;;;5093634;28;20573;-62
2023/04/07 06:08:20;;;;;;;4.57;4.18;;;24.60;44.10;;;;;;5081332;28;20230;-62
2023/04/07 06:11:08;;;;;;;4.95;4.55;;;24.70;44.50;;;;;;5095194;28;20223;-62
2023/04/07 06:13:56;;;;;;;4.85;4.40;;;24.80;44.40;;;;;;5096124;28;20695;-62
2023/04/07 06:16:44;;;;;;;4.30;4.00;;;24.90;43.70;;;;;;5095869;28;20700;-62
2023/04/07 06:19:33;;;;;;;4.57;4.18;;;24.90;43.70;;;;;;5098073;28;20206;-62
2023/04/07 06:22:22;;;;;;;4.20;3.90;;;25.00;44.30;;;;;;5076701;28;20242;-62
2023/04/07 06:25:10;;;;;;;5.10;4.35;;;25.00;44.30;;;;;;5076224;28;20668;-62
2023/04/07 06:27:58;;;;;;;4.15;3.78;;;25.00;43.70;;;;;;5076756;28;20229;-62
2023/04/07 06:30:47;;;;;;;3.95;3.63;;;25.00;44.30;;;;;;5076768;28;20304;-62
2023/04/07 06:33:35;;;;;;;4.03;3.63;;;25.00;44.30;;;;;;5077806;28;20260;-62
2023/04/07 06:36:24;;;;;;;4.32;3.95;;;25.20;49.40;;;;;;5075027;28;20196;-62
2023/04/07 06:39:12;;;;;;;4.03;3.60;;;25.00;44.30;;;;;;5076519;28;20208;-61
2023/04/07 06:42:00;;;;;;;4.20;3.70;;;25.00;44.30;;;;;;5076166;28;20285;-62
2023/04/07 06:44:48;;;;;;;3.95;3.55;;;25.00;44.10;;;;;;5076542;28;20228;-62
2023/04/07 06:47:37;;;;;;;4.10;3.70;;;25.00;43.60;;;;;;5077622;28;20316;-62
2023/04/07 06:50:25;;;;;;;3.92;3.35;;;25.00;44.20;;;;;;5076865;28;20256;-62
2023/04/07 06:53:14;;;;;;;4.30;3.90;;;25.00;44.10;;;;;;5076052;28;20229;-62
2023/04/07 06:56:04;;;;;;;4.30;3.70;;;25.00;44.20;;;;;;5076684;28;20636;-62
2023/04/07 06:58:52;;;;;;;4.10;3.78;;;24.90;43.60;;;;;;5074998;28;20197;-62
2023/04/07 07:01:40;;;;;;;3.55;3.25;;;25.00;44.20;;;;;;5076475;28;20200;-62
2023/04/07 07:04:29;;;;;;;4.40;3.58;;;25.00;44.20;;;;;;5076419;28;20303;-62
2023/04/07 07:07:17;;;;;;;4.18;3.88;;;24.90;43.70;;;;;;5075866;28;20221;-61
2023/04/07 07:10:09;;;;;;;4.63;3.60;;;24.90;44.30;;;;;;5075114;28;20215;-62
2023/04/07 07:12:57;;;;;;;3.63;3.33;;;24.90;44.30;;;;;;5072168;28;20254;-62
2023/04/07 07:15:45;;;;;;;3.97;3.33;;;25.00;44.40;;;;;;5074201;28;20228;-62
2023/04/07 07:18:33;;;;;;;4.97;4.05;;;24.90;43.80;;;;;;5075672;28;20196;-63
2023/04/07 07:21:21;;;;;;;4.72;3.60;;;25.00;44.40;;;;;;5074576;28;20203;-61
2023/04/07 07:24:09;;;;;;;3.90;3.40;;;25.00;44.30;;;;;;5071316;28;20221;-62
2023/04/07 07:26:58;;;;;;;4.32;3.97;;;25.10;43.60;;;;;;5073769;28;20673;-62
2023/04/07 07:29:46;;;;;;;3.50;3.30;;;25.20;44.20;;;;;;5075347;28;20204;-62
2023/04/07 07:32:34;;;;;;;4.07;3.67;;;25.20;44.20;;;;;;5075603;28;20196;-61
2023/04/07 07:35:24;;;;;;;3.42;3.13;;;25.30;44.20;;;;;;5074814;28;20203;-62
2023/04/07 07:38:12;;;;;;;2.88;2.67;;;25.20;43.70;;;;;;5075684;28;20272;-62
2023/04/07 07:41:00;;;;;;;4.07;3.70;;;25.30;44.30;;;;;;5075522;28;20196;-62
2023/04/07 07:43:49;;;;;;;3.90;3.55;;;25.20;44.30;;;;;;5074222;28;20224;-61
2023/04/07 07:46:37;;;;;;;4.07;3.58;;;25.00;44.00;;;;;;5074407;28;20223;-61
2023/04/07 07:49:25;;;;;;;4.40;3.83;;;25.00;44.50;;;;;;5077274;28;20289;-61
2023/04/07 07:52:13;;;;;;;3.80;3.47;;;25.00;44.70;;;;;;5078332;28;20223;-61
2023/04/07 07:55:02;;;;;;;3.78;3.47;;;24.80;44.70;;;;;;5080607;28;20200;-61
2023/04/07 07:57:50;;;;;;;4.50;4.10;;;24.80;44.30;;;;;;5092252;28;20360;-61
2023/04/07 08:00:39;;;;;;;7.15;4.10;;;24.80;44.80;;;;;;5099045;28;20236;-61
2023/04/07 08:03:27;;;;;;;4.22;3.83;;;24.80;44.60;;;;;;5099272;28;20279;-62
2023/04/07 08:06:16;;;;;;;3.95;3.60;;;25.00;48.20;;;;;;5100748;28;20203;-62
2023/04/07 08:09:05;;;;;;;4.10;3.70;;;25.10;44.60;;;;;;5101989;28;20204;-62
2023/04/07 08:11:53;;;;;;;3.65;3.35;;;25.20;44.40;;;;;;5100930;28;20227;-62
2023/04/07 08:14:41;;;;;;;3.75;3.38;;;25.30;44.40;;;;;;5100355;28;20727;-61
2023/04/07 08:17:30;;;;;;;4.00;3.60;;;25.40;43.70;;;;;;5102332;28;20243;-62
2023/04/07 08:20:19;;;;;;;4.07;3.72;;;25.40;44.30;;;;;;5102545;28;20696;-62
2023/04/07 08:23:07;;;;;;;3.78;3.47;;;25.40;44.20;;;;;;5101172;28;20680;-62
2023/04/07 08:25:55;;;;;;;3.92;3.63;;;25.50;44.30;;;;;;5101143;28;20230;-64
2023/04/07 08:28:44;;;;;;;3.67;3.28;;;25.40;43.70;;;;;;5099966;28;20287;-62
2023/04/07 08:31:32;;;;;;;5.60;3.47;;;25.40;44.30;;;;;;5100940;28;20279;-62
2023/04/07 08:34:21;;;;;;;6.57;3.55;;;25.30;44.20;;;;;;5101460;28;20200;-62
2023/04/07 08:37:09;;;;;;;3.35;3.08;;;25.30;43.80;;;;;;5100268;28;20222;-62
2023/04/07 08:39:57;;;;;;;4.45;3.40;;;25.30;44.30;;;;;;5100581;28;20263;-62
2023/04/07 08:42:48;;;;;;;3.78;3.47;;;25.30;44.30;;;;;;5101217;28;20234;-61
2023/04/07 08:45:39;;;;;;;4.35;3.00;;;25.30;44.40;;;;;;5100575;28;20226;-62
2023/04/07 08:48:32;;;;;;;4.13;3.42;;;25.30;43.80;;;;;;5100409;28;20226;-62
2023/04/07 08:51:27;;;;;;;9.40;3.72;;;25.30;44.30;;;;;;5099316;28;20292;-62
2023/04/07 08:54:17;;;;;;;3.80;3.50;;;25.40;44.20;;;;;;5099103;28;20189;-62
2023/04/07 08:57:07;;;;;;;3.60;3.22;;;25.40;43.70;;;;;;5091818;28;20212;-62
2023/04/07 08:59:56;;;;;;;4.38;3.22;;;25.40;44.20;;;;;;5078267;28;20668;-61
2023/04/07 09:02:46;;;;;;;3.50;3.20;;;25.40;44.20;;;;;;5077507;28;20245;-61
2023/04/07 09:05:35;;;;;;;4.18;3.78;;;25.40;44.20;;;;;;5076998;28;20303;-62
2023/04/07 09:08:24;;;;;;;3.45;2.80;;;25.30;43.60;;;;;;5077019;28;20656;-62
2023/04/07 09:11:12;;;;;;;2.75;2.55;;;25.30;44.30;;;;;;5076874;28;20197;-61
2023/04/07 09:14:00;;;;;;;7.50;3.53;;;25.20;44.20;;;;;;5077272;28;20350;-62
2023/04/07 09:16:49;;;;;;;3.80;3.50;;;25.20;43.80;;;;;;5076307;28;20678;-62
2023/04/07 09:19:37;;;;;;;4.13;3.55;;;25.20;44.40;;;;;;5075205;28;20201;-61
2023/04/07 09:22:39;;;;;;;4.03;3.72;;;25.20;44.30;;;;;;5078303;28;20279;-61
2023/04/07 09:25:29;;;;;;;3.50;3.20;;;25.20;44.30;;;;;;5078685;28;20220;-62
2023/04/07 09:28:17;;;;;;;4.05;3.08;;;25.30;43.60;;;;;;5078909;28;20243;-62
2023/04/07 09:31:05;;;;;;;3.55;3.20;;;25.40;44.20;;;;;;5075949;28;20476;-62
2023/04/07 09:33:54;;;;;;;3.85;2.85;;;25.40;44.00;;;;;;5076785;28;20839;-61
2023/04/07 09:36:42;;;;;;;3.30;3.00;;;25.40;43.50;;;;;;5076228;28;20228;-62
2023/04/07 09:39:30;;;;;;;2.78;2.58;;;25.40;44.00;;;;;;5080463;28;20580;-62
2023/04/07 09:42:21;;;;;;;4.15;2.95;;;25.30;43.90;;;;;;5079899;28;20254;-62
2023/04/07 09:45:10;;;;;;;3.60;3.30;;;25.20;44.00;;;;;;5080478;28;20224;-62
2023/04/07 09:48:06;;;;;;;4.10;3.10;;;25.10;43.60;;;;;;5078435;28;20220;-62
2023/04/07 09:51:05;;;;;;;3.15;2.63;;;25.00;44.10;;;;;;5078401;28;20281;-62
2023/04/07 09:53:54;;;;;;;2.55;2.35;;;25.00;44.20;;;;;;5079738;28;20197;-62
2023/04/07 09:56:42;;;;;;;3.05;2.75;;;25.00;43.50;;;;;;5082158;28;20223;-62
2023/04/07 09:59:32;;;;;;;4.00;3.15;;;25.00;44.10;;;;;;5098869;28;20200;-62
2023/04/07 10:02:21;;;;;;;5.45;3.25;;;25.10;44.00;;;;;;5096926;28;20192;-62
2023/04/07 10:05:10;;;;;;;3.25;2.72;;;25.20;43.80;;;;;;5099141;28;20614;-62
2023/04/07 10:07:58;;;;;;;4.47;2.65;;;25.30;43.30;;;;;;5098497;28;20215;-62
2023/04/07 10:10:49;;;;;;;3.58;2.53;;;25.50;43.90;;;;;;5098468;28;20203;-62
2023/04/07 10:13:40;;;;;;;3.85;2.63;;;25.40;43.70;;;;;;5096774;28;20279;-62
2023/04/07 10:16:30;;;;;;;3.20;2.47;;;25.50;43.10;;;;;;5096992;28;20770;-62
2023/04/07 10:19:19;;;;;;;3.15;2.95;;;25.50;43.60;;;;;;5097932;28;20196;-62
2023/04/07 10:22:07;;;;;;;3.65;2.58;;;25.40;43.40;;;;;;5098711;28;20743;-62
2023/04/07 10:25:00;;;;;;;2.55;2.20;;;25.70;43.60;;;;;;5098621;28;20218;-62
2023/04/07 10:27:52;;;;;;;3.08;2.63;;;25.50;43.00;;;;;;5127071;22;20245;-66
2023/04/07 10:30:41;;;;;;;3.30;2.70;;;25.50;43.30;;;;;;5113216;28;20191;-66
2023/04/07 10:33:47;;;;;;;2.63;2.42;;;25.40;43.50;;;;;;5112830;28;20195;-66
2023/04/07 10:36:36;;;;;;;3.03;2.50;;;25.50;46.50;;;;;;5113410;28;20662;-66
2023/04/07 10:39:24;;;;;;;3.78;3.17;;;25.40;43.50;;;;;;5113808;28;20223;-66
2023/04/07 10:42:45;;;;;;;3.33;3.03;;;25.40;43.50;;;;;;5113410;28;20202;-66
2023/04/07 10:45:58;;;;;;;2.90;2.70;;;25.40;43.50;;;;;;5111611;28;20211;-65
2023/04/07 10:49:08;;;;;;;2.92;2.72;;;25.40;43.40;;;;;;5112372;28;20241;-66
2023/04/07 10:52:22;;;;;;;2.90;2.70;;;25.40;43.40;;;;;;5111928;28;20255;-66
2023/04/07 10:55:33;;;;;;;2.85;2.58;;;25.40;43.50;;;;;;5111091;28;20195;-66
2023/04/07 10:58:23;;;;;;;2.53;2.33;;;25.40;43.50;;;;;;5111316;28;20860;-65
2023/04/07 11:01:19;;;;;;;5.07;2.28;;;25.40;43.50;;;;;;5113079;28;20602;-66
2023/04/07 11:04:09;;;;;;;2.58;2.38;;;25.30;43.30;;;;;;5111617;28;20198;-66
2023/04/07 11:06:58;;;;;;;2.45;2.25;;;25.30;43.50;;;;;;5111393;28;20591;-66
2023/04/07 11:09:46;;;;;;;3.05;2.75;;;25.30;43.40;;;;;;5112570;28;20695;-66
2023/04/07 11:12:34;;;;;;;2.25;2.15;;;25.20;43.40;;;;;;5110966;28;20202;-66
2023/04/07 11:15:23;;;;;;;2.55;2.35;;;25.20;43.30;;;;;;5112977;28;20196;-66
2023/04/07 11:18:16;;;;;;;2.33;2.13;;;25.30;43.50;;;;;;5111528;28;20225;-66
2023/04/07 11:21:06;;;;;;;2.72;2.40;;;25.50;43.40;;;;;;5111600;28;20697;-66
2023/04/07 11:23:55;;;;;;;2.78;2.58;;;25.50;43.30;;;;;;5116049;28;20277;-66
2023/04/07 11:26:43;;;;;;;2.03;1.92;;;25.20;46.80;;;;;;5114955;28;20219;-66
2023/04/07 11:29:32;;;;;;;3.28;2.35;;;25.50;43.20;;;;;;5116766;28;20295;-66
2023/04/07 11:32:24;;;;;;;2.33;2.13;;;25.50;43.20;;;;;;5117425;28;20272;-66
2023/04/07 11:35:13;;;;;;;2.75;1.98;;;25.50;43.00;;;;;;5116558;28;20227;-65
2023/04/07 11:38:03;;;;;;;2.53;2.17;;;25.50;43.00;;;;;;5116574;28;20220;-66
2023/04/07 11:40:51;;;;;;;3.53;2.15;;;25.70;43.20;;;;;;5116321;28;20264;-67
2023/04/07 11:43:40;;;;;;;2.20;1.90;;;25.60;43.10;;;;;;5115597;28;20742;-66
2023/04/07 11:46:29;;;;;;;2.08;1.92;;;25.40;42.90;;;;;;5116726;27;20225;-66
2023/04/07 11:49:17;;;;;;;2.15;1.95;;;25.40;43.30;;;;;;5117178;27;20203;-66
2023/04/07 11:52:06;;;;;;;2.28;1.90;;;25.30;43.40;;;;;;5116661;27;20329;-66
2023/04/07 11:54:58;;;;;;;2.28;1.90;;;25.20;44.10;;;;;;5116292;28;20195;-66
2023/04/07 11:57:46;;;;;;;2.50;1.95;;;25.10;43.50;;;;;;5104440;28;20658;-67
2023/04/07 12:00:34;;;;;;;2.17;2.05;;;25.10;43.70;;;;;;5094377;28;20245;-66
2023/04/07 12:03:23;;;;;;;2.50;2.25;;;25.20;43.60;;;;;;5096270;28;20279;-67
2023/04/07 12:06:11;;;;;;;2.25;1.73;;;25.20;43.60;;;;;;5096267;28;20223;-66
2023/04/07 12:08:59;;;;;;;2.50;2.30;;;25.30;43.60;;;;;;5095355;28;20204;-66
2023/04/07 12:11:50;;;;;;;2.70;2.05;;;25.50;43.70;;;;;;5095290;28;20279;-66
2023/04/07 12:14:38;;;;;;;2.25;2.00;;;25.40;43.50;;;;;;5095447;28;20200;-67
2023/04/07 12:17:27;;;;;;;3.17;2.40;;;25.60;43.70;;;;;;5094057;28;20595;-67
2023/04/07 12:20:15;;;;;;;2.33;1.92;;;25.60;43.70;;;;;;5094901;28;20279;-67
2023/04/07 12:23:03;;;;;;;2.58;2.38;;;25.60;43.70;;;;;;5095551;28;20279;-66
2023/04/07 12:25:52;;;;;;;1.92;1.70;;;25.70;43.80;;;;;;5094592;28;20696;-67
2023/04/07 12:28:41;;;;;;;2.17;2.08;;;25.70;43.70;;;;;;5094784;28;20235;-66
2023/04/07 12:31:29;;;;;;;2.85;2.50;;;25.60;43.80;;;;;;5095075;28;20337;-66
2023/04/07 12:34:19;;;;;;;3.25;2.10;;;25.60;43.90;;;;;;5094333;28;20208;-67
2023/04/07 12:37:07;;;;;;;2.58;2.38;;;25.50;43.40;;;;;;5094739;28;20235;-66
2023/04/07 12:39:55;;;;;;;2.42;2.22;;;25.50;44.00;;;;;;5094259;28;20295;-67
2023/04/07 12:42:43;;;;;;;1.75;1.55;;;25.60;44.10;;;;;;5094559;28;20644;-66
2023/04/07 12:45:32;;;;;;;2.00;1.90;;;25.60;44.10;;;;;;5095116;28;20206;-67
2023/04/07 12:48:21;;;;;;;1.85;1.75;;;25.60;44.10;;;;;;5093519;28;20216;-66
2023/04/07 12:51:09;;;;;;;2.03;1.70;;;25.60;44.10;;;;;;5095381;28;20192;-65
2023/04/07 12:53:57;;;;;;;3.35;1.92;;;25.70;44.20;;;;;;5093637;28;20204;-64
2023/04/07 12:56:45;;;;;;;2.90;2.08;;;25.70;44.30;;;;;;5098580;28;20657;-65
2023/04/07 12:59:34;;;;;;;2.60;2.40;;;25.60;44.40;;;;;;5115116;28;20691;-65
2023/04/07 13:02:24;;;;;;;2.30;2.10;;;25.60;44.50;;;;;;5113622;28;20196;-65
2023/04/07 13:05:12;;;;;;;1.95;1.85;;;25.50;44.60;;;;;;5115099;28;20663;-65
2023/04/07 13:08:00;;;;;;;2.40;2.20;;;25.40;44.70;;;;;;5112315;28;20222;-65
2023/04/07 13:10:48;;;;;;;2.65;1.98;;;25.30;44.70;;;;;;5116211;28;20282;-66
2023/04/07 13:13:36;;;;;;;2.03;1.92;;;25.20;44.80;;;;;;5114104;28;20195;-67
2023/04/07 13:16:25;;;;;;;1.95;1.85;;;;;;;;;;5114839;28;20686;-66
2023/04/07 13:19:14;;;;;;;2.38;2.15;;;25.20;44.50;;;;;;5115517;28;20199;-65
2023/04/07 13:22:02;;;;;;;2.38;2.05;;;25.20;45.10;;;;;;5115078;28;20278;-65
2023/04/07 13:24:53;;;;;;;1.90;1.80;;;25.20;45.20;;;;;;5115683;28;20699;-65
2023/04/07 13:27:41;;;;;;;2.30;2.10;;;25.20;45.20;;;;;;5115465;28;20229;-65
2023/04/07 13:30:29;;;;;;;1.83;1.70;;;25.30;45.30;;;;;;5114461;28;20200;-65
2023/04/07 13:33:17;;;;;;;2.20;2.00;;;25.30;45.20;;;;;;5116292;28;20199;-65
2023/04/07 13:36:06;;;;;;;1.90;1.80;;;25.30;45.20;;;;;;5113286;28;20604;-65
2023/04/07 13:38:55;;;;;;;1.70;1.60;;;25.40;45.20;;;;;;5114877;28;20272;-66
2023/04/07 13:41:43;;;;;;;2.15;2.05;;;25.40;45.20;;;;;;5112550;28;20256;-66
2023/04/07 13:44:32;;;;;;;1.80;1.70;;;25.30;45.20;;;;;;5114222;28;20545;-66
2023/04/07 13:47:21;;;;;;;1.90;1.80;;;25.30;45.30;;;;;;5114958;28;20227;-66
2023/04/07 13:50:10;;;;;;;1.75;1.65;;;25.20;45.30;;;;;;5115845;28;20206;-66
2023/04/07 13:52:59;;;;;;;1.80;1.65;;;25.10;45.50;;;;;;5114695;28;20282;-66
2023/04/07 13:55:47;;;;;;;1.80;1.70;;;25.00;45.70;;;;;;5114710;28;20278;-66
2023/04/07 13:58:36;;;;;;;1.60;1.50;;;24.90;45.90;;;;;;5093491;28;20216;-66
2023/04/07 14:01:24;;;;;;;1.60;1.42;;;24.90;45.90;;;;;;5094984;28;20200;-66
2023/04/07 14:04:13;;;;;;;1.58;1.48;;;24.90;45.90;;;;;;5095612;28;20200;-66
2023/04/07 14:07:01;;;;;;;2.33;1.70;;;25.00;45.80;;;;;;5095899;28;20232;-64
2023/04/07 14:09:50;;;;;;;1.65;1.50;;;25.10;45.70;;;;;;5095534;28;20206;-65
2023/04/07 14:12:38;;;;;;;1.50;1.40;;;25.20;45.60;;;;;;5093581;28;20210;-65
2023/04/07 14:15:26;;;;;;;1.73;1.63;;;25.30;46.30;;;;;;5094255;28;20550;-65
2023/04/07 14:18:15;;;;;;;1.77;1.67;;;25.30;45.60;;;;;;5096054;28;20274;-64
2023/04/07 14:21:03;;;;;;;1.88;1.27;;;25.40;45.60;;;;;;5094099;28;20345;-64
2023/04/07 14:23:51;;;;;;;1.65;1.50;;;25.40;45.60;;;;;;5094558;28;20285;-65
2023/04/07 14:26:42;;;;;;;1.55;1.45;;;25.20;49.20;;;;;;5091924;28;20691;-65
2023/04/07 14:29:30;;;;;;;1.60;1.50;;;25.40;45.70;;;;;;5092859;28;20317;-66
2023/04/07 14:32:18;;;;;;;1.45;1.15;;;25.30;45.70;;;;;;5091541;28;20719;-66
2023/04/07 14:35:07;;;;;;;1.52;1.42;;;25.30;45.80;;;;;;5093493;28;20200;-67
2023/04/07 14:37:55;;;;;;;1.67;1.58;;;25.20;45.80;;;;;;5093201;28;20229;-66
2023/04/07 14:40:44;;;;;;;1.75;1.65;;;25.30;46.00;;;;;;5094588;28;20282;-66
2023/04/07 14:43:34;;;;;;;1.40;1.23;;;25.20;45.90;;;;;;5091987;28;20664;-66